createdAt,value
2022-09-12T00:00:07.333Z,13.37
2022-09-12T00:02:35.103Z,13.36
2022-09-12T00:05:02.861Z,13.29
2022-09-12T00:07:30.674Z,13.33
2022-09-12T00:09:58.573Z,13.32
2022-09-12T00:12:27.675Z,13.29
2022-09-12T00:14:55.422Z,13.41
2022-09-12T00:17:23.178Z,13.36
2022-09-12T00:19:50.945Z,13.31
2022-09-12T00:22:18.851Z,13.18
2022-09-12T00:24:46.734Z,13.20
2022-09-12T00:27:14.478Z,13.26
2022-09-12T00:29:43.607Z,13.28
2022-09-12T00:32:11.361Z,13.15
2022-09-12T00:34:39.191Z,13.04
2022-09-12T00:37:06.994Z,13.25
2022-09-12T00:39:35.011Z,13.14
2022-09-12T00:42:03.016Z,13.21
2022-09-12T00:44:48.459Z,13.08
2022-09-12T00:47:21.944Z,13.07
2022-09-12T00:49:53.041Z,13.00
2022-09-12T00:52:27.724Z,13.07
2022-09-12T00:55:00.777Z,13.31
2022-09-12T00:57:33.552Z,13.27
2022-09-12T01:00:11.107Z,13.10
2022-09-12T01:02:39.105Z,12.88
2022-09-12T01:05:08.045Z,13.07
2022-09-12T01:07:40.012Z,12.88
2022-09-12T01:10:10.261Z,13.06
2022-09-12T01:12:40.550Z,13.01
2022-09-12T01:15:10.819Z,13.05
2022-09-12T01:17:52.205Z,12.95
2022-09-12T01:20:53.247Z,12.89
2022-09-12T01:24:05.881Z,12.91
2022-09-12T01:27:18.036Z,12.89
2022-09-12T01:30:02.602Z,12.72
2022-09-12T01:32:43.668Z,12.78
2022-09-12T01:35:22.920Z,12.69
2022-09-12T01:38:01.971Z,12.50
2022-09-12T01:40:35.222Z,12.73
2022-09-12T01:43:09.678Z,12.73
2022-09-12T01:45:46.095Z,12.50
2022-09-12T01:48:20.629Z,12.62
2022-09-12T01:50:53.458Z,12.60
2022-09-12T01:53:26.736Z,12.52
2022-09-12T01:56:01.515Z,12.39
2022-09-12T01:58:37.304Z,12.48
2022-09-12T02:01:09.454Z,12.44
2022-09-12T02:03:45.528Z,12.38
2022-09-12T02:06:19.817Z,12.33
2022-09-12T02:08:52.922Z,12.43
2022-09-12T02:11:21.448Z,12.38
2022-09-12T02:13:56.054Z,12.43
2022-09-12T02:16:30.367Z,12.39
2022-09-12T02:19:06.275Z,12.55
2022-09-12T02:21:38.003Z,12.50
2022-09-12T02:24:08.689Z,12.53
2022-09-12T02:26:42.547Z,12.47
2022-09-12T02:29:10.692Z,12.48
2022-09-12T02:31:44.067Z,12.48
2022-09-12T02:34:27.746Z,12.43
2022-09-12T02:37:06.744Z,12.29
2022-09-12T02:39:35.323Z,12.28
2022-09-12T02:42:04.751Z,12.33
2022-09-12T02:44:34.497Z,12.32
2022-09-12T02:47:06.526Z,12.34
2022-09-12T02:49:35.727Z,12.14
2022-09-12T02:52:04.552Z,12.32
2022-09-12T02:54:32.442Z,12.32
2022-09-12T02:57:00.211Z,12.34
2022-09-12T02:59:28.550Z,12.35
2022-09-12T03:02:16.734Z,12.31
2022-09-12T03:05:11.789Z,12.21
2022-09-12T03:08:12.585Z,12.20
2022-09-12T03:10:51.527Z,12.24
2022-09-12T03:13:24.848Z,12.13
2022-09-12T03:16:05.090Z,12.02
2022-09-12T03:18:50.177Z,11.98
2022-09-12T03:21:26.788Z,12.07
2022-09-12T03:24:06.149Z,12.01
2022-09-12T03:26:39.357Z,12.02
2022-09-12T03:29:08.798Z,11.92
2022-09-12T03:31:36.575Z,12.06
2022-09-12T03:34:05.096Z,11.92
2022-09-12T03:36:34.294Z,11.86
2022-09-12T03:39:02.217Z,11.94
2022-09-12T03:41:29.955Z,12.11
2022-09-12T03:43:57.788Z,12.01
2022-09-12T03:46:25.618Z,12.04
2022-09-12T03:48:53.548Z,12.02
2022-09-12T03:51:21.532Z,11.94
2022-09-12T03:53:50.737Z,12.09
2022-09-12T03:56:19.359Z,11.95
2022-09-12T03:58:47.839Z,12.12
2022-09-12T04:01:18.246Z,11.99
2022-09-12T04:03:47.918Z,12.00
2022-09-12T04:06:17.619Z,11.92
2022-09-12T04:08:48.764Z,11.89
2022-09-12T04:11:19.626Z,11.87
2022-09-12T04:13:47.902Z,11.81
2022-09-12T04:16:17.472Z,11.72
2022-09-12T04:18:45.803Z,11.80
2022-09-12T04:21:15.782Z,11.85
2022-09-12T04:23:43.908Z,11.95
2022-09-12T04:26:13.599Z,11.96
2022-09-12T04:28:42.798Z,11.99
2022-09-12T04:31:15.468Z,12.16
2022-09-12T04:33:43.572Z,12.14
2022-09-12T04:36:16.614Z,12.17
2022-09-12T04:38:45.535Z,12.13
2022-09-12T04:41:14.449Z,12.15
2022-09-12T04:43:46.357Z,12.17
2022-09-12T04:46:16.600Z,12.13
2022-09-12T04:48:44.841Z,12.05
2022-09-12T04:51:18.835Z,12.06
2022-09-12T04:53:50.219Z,12.15
2022-09-12T04:56:18.660Z,12.15
2022-09-12T04:58:48.629Z,12.00
2022-09-12T05:01:18.415Z,12.12
2022-09-12T05:03:48.304Z,12.11
2022-09-12T05:06:18.105Z,12.17
2022-09-12T05:08:46.269Z,12.18
2022-09-12T05:11:15.858Z,12.10
2022-09-12T05:13:43.893Z,12.12
2022-09-12T05:16:15.522Z,11.97
2022-09-12T05:18:45.091Z,11.96
2022-09-12T05:21:16.377Z,12.15
2022-09-12T05:23:44.279Z,12.24
2022-09-12T05:26:15.328Z,12.19
2022-09-12T05:28:43.675Z,12.20
2022-09-12T05:31:15.371Z,12.15
2022-09-12T05:33:44.786Z,12.13
2022-09-12T05:36:14.832Z,12.27
2022-09-12T05:38:42.909Z,12.43
2022-09-12T05:41:17.574Z,12.43
2022-09-12T05:43:48.312Z,12.43
2022-09-12T05:46:20.281Z,12.57
2022-09-12T05:48:52.530Z,12.63
2022-09-12T05:51:25.440Z,12.69
2022-09-12T05:53:55.346Z,12.67
2022-09-12T05:56:25.193Z,12.81
2022-09-12T05:58:56.117Z,12.81
2022-09-12T06:01:25.932Z,12.89
2022-09-12T06:03:55.613Z,13.03
2022-09-12T06:06:25.981Z,13.09
2022-09-12T06:08:56.751Z,13.20
2022-09-12T06:11:27.316Z,13.28
2022-09-12T06:13:56.312Z,13.34
2022-09-12T06:16:28.147Z,13.42
2022-09-12T06:18:57.567Z,13.55
2022-09-12T06:21:26.507Z,13.63
2022-09-12T06:23:55.411Z,13.64
2022-09-12T06:26:25.684Z,13.72
2022-09-12T06:28:54.751Z,13.93
2022-09-12T06:31:26.123Z,14.00
2022-09-12T06:33:55.256Z,14.14
2022-09-12T06:36:25.365Z,14.09
2022-09-12T06:38:58.595Z,14.23
2022-09-12T06:41:26.966Z,14.46
2022-09-12T06:43:55.346Z,14.53
2022-09-12T06:46:23.716Z,14.73
2022-09-12T06:48:53.045Z,14.57
2022-09-12T06:51:21.843Z,14.50
2022-09-12T06:53:50.564Z,14.56
2022-09-12T06:56:19.935Z,14.68
2022-09-12T06:58:49.232Z,14.78
2022-09-12T07:01:19.130Z,14.76
2022-09-12T07:03:50.006Z,14.76
2022-09-12T07:06:24.181Z,14.84
2022-09-12T07:08:52.470Z,14.95
2022-09-12T07:11:22.036Z,15.09
2022-09-12T07:13:51.873Z,15.17
2022-09-12T07:16:20.345Z,15.35
2022-09-12T07:18:52.338Z,15.39
2022-09-12T07:21:20.663Z,15.44
2022-09-12T07:23:51.825Z,15.44
2022-09-12T07:26:19.845Z,15.54
2022-09-12T07:28:53.408Z,15.69
2022-09-12T07:31:23.514Z,15.90
2022-09-12T07:33:54.618Z,16.03
2022-09-12T07:36:25.391Z,16.29
2022-09-12T07:38:58.475Z,16.22
2022-09-12T07:41:28.199Z,16.38
2022-09-12T07:43:57.776Z,16.55
2022-09-12T07:46:27.336Z,16.82
2022-09-12T07:48:56.957Z,16.76
2022-09-12T07:51:26.673Z,17.02
2022-09-12T07:53:54.934Z,16.95
2022-09-12T07:56:29.643Z,17.05
2022-09-12T07:58:59.231Z,17.10
2022-09-12T08:01:27.689Z,17.09
2022-09-12T08:03:58.173Z,17.24
2022-09-12T08:06:27.397Z,17.41
2022-09-12T08:08:57.339Z,17.71
2022-09-12T08:11:29.427Z,17.78
2022-09-12T08:13:59.086Z,17.93
2022-09-12T08:16:28.615Z,18.26
2022-09-12T08:18:56.795Z,18.18
2022-09-12T08:21:26.925Z,18.24
2022-09-12T08:23:56.718Z,18.24
2022-09-12T08:26:26.476Z,18.17
2022-09-12T08:28:54.985Z,18.32
2022-09-12T08:31:24.958Z,18.21
2022-09-12T08:33:55.759Z,18.49
2022-09-12T08:36:25.596Z,18.70
2022-09-12T08:38:59.635Z,18.67
2022-09-12T08:41:34.887Z,18.56
2022-09-12T08:44:20.854Z,18.62
2022-09-12T08:46:58.129Z,19.07
2022-09-12T08:49:34.940Z,19.24
2022-09-12T08:52:12.003Z,19.22
2022-09-12T08:54:41.145Z,19.68
2022-09-12T08:57:13.012Z,19.73
2022-09-12T08:59:42.902Z,19.84
2022-09-12T09:02:31.027Z,19.97
2022-09-12T09:05:06.369Z,20.25
2022-09-12T09:08:10.685Z,20.18
2022-09-12T09:10:49.897Z,20.35
2022-09-12T09:13:46.969Z,20.19
2022-09-12T09:16:22.526Z,19.98
2022-09-12T09:18:52.520Z,20.13
2022-09-12T09:21:25.023Z,20.49
2022-09-12T09:24:00.109Z,20.04
2022-09-12T09:26:35.965Z,20.40
2022-09-12T09:29:12.217Z,20.58
2022-09-12T09:31:40.798Z,20.84
2022-09-12T09:34:15.663Z,20.57
2022-09-12T09:36:50.786Z,20.88
2022-09-12T09:39:35.503Z,21.33
2022-09-12T09:42:16.981Z,21.08
2022-09-12T09:44:49.130Z,21.09
2022-09-12T09:47:19.178Z,21.45
2022-09-12T09:49:47.586Z,21.68
2022-09-12T09:52:25.824Z,21.72
2022-09-12T09:54:58.437Z,21.77
2022-09-12T09:57:44.660Z,21.55
2022-09-12T10:00:30.582Z,21.72
2022-09-12T10:03:34.046Z,21.83
2022-09-12T10:06:03.775Z,22.14
2022-09-12T10:08:33.431Z,22.33
2022-09-12T10:11:04.334Z,22.40
2022-09-12T10:13:37.500Z,22.48
2022-09-12T10:16:18.739Z,22.80
2022-09-12T10:18:47.332Z,22.65
2022-09-12T10:21:18.833Z,23.07
2022-09-12T10:23:48.483Z,22.84
2022-09-12T10:26:20.546Z,22.85
2022-09-12T10:28:52.313Z,23.00
2022-09-12T10:31:29.034Z,23.16
2022-09-12T10:33:59.548Z,23.09
2022-09-12T10:36:36.181Z,23.04
2022-09-12T10:39:05.101Z,22.95
2022-09-12T10:41:39.608Z,22.92
2022-09-12T10:44:10.036Z,22.96
2022-09-12T10:46:39.229Z,22.76
2022-09-12T10:49:15.785Z,22.74
2022-09-12T10:51:43.658Z,22.97
2022-09-12T10:54:13.407Z,23.47
2022-09-12T10:56:48.243Z,23.41
2022-09-12T10:59:26.800Z,23.41
2022-09-12T11:02:01.422Z,23.62
2022-09-12T11:04:42.401Z,23.63
2022-09-12T11:07:30.827Z,23.44
2022-09-12T11:10:14.984Z,23.62
2022-09-12T11:12:52.350Z,23.43
2022-09-12T11:15:36.219Z,23.51
2022-09-12T11:18:17.277Z,23.59
2022-09-12T11:21:09.397Z,23.77
2022-09-12T11:24:17.129Z,24.33
2022-09-12T11:27:13.251Z,23.83
2022-09-12T11:29:50.145Z,23.84
2022-09-12T11:32:36.355Z,24.23
2022-09-12T11:35:17.742Z,24.28
2022-09-12T11:38:00.319Z,24.14
2022-09-12T11:40:33.500Z,24.29
2022-09-12T11:43:08.283Z,23.84
2022-09-12T11:45:41.641Z,24.02
2022-09-12T11:48:16.836Z,24.52
2022-09-12T11:50:46.147Z,24.58
2022-09-12T11:53:20.951Z,24.41
2022-09-12T11:55:56.375Z,24.09
2022-09-12T11:58:29.407Z,23.90
2022-09-12T12:01:02.448Z,23.56
2022-09-12T12:03:36.777Z,23.46
2022-09-12T12:06:12.116Z,23.77
2022-09-12T12:08:42.694Z,23.77
2022-09-12T12:11:13.157Z,23.90
2022-09-12T12:13:46.581Z,24.02
2022-09-12T12:16:21.170Z,24.16
2022-09-12T12:18:55.767Z,24.42
2022-09-12T12:21:39.430Z,24.33
2022-09-12T12:24:19.935Z,24.46
2022-09-12T12:27:03.194Z,24.60
2022-09-12T12:29:45.346Z,24.31
2022-09-12T12:32:28.690Z,24.74
2022-09-12T12:35:31.464Z,24.77
2022-09-12T12:38:00.641Z,24.67
2022-09-12T12:40:30.788Z,24.62
2022-09-12T12:43:04.555Z,24.59
2022-09-12T12:46:02.805Z,24.30
2022-09-12T12:48:44.825Z,24.21
2022-09-12T12:51:35.766Z,23.95
2022-09-12T12:54:26.661Z,24.45
2022-09-12T12:57:03.561Z,24.55
2022-09-12T12:59:32.169Z,24.64
2022-09-12T13:02:01.501Z,24.68
2022-09-12T13:04:32.381Z,25.00
2022-09-12T13:07:08.189Z,25.22
2022-09-12T13:09:47.126Z,24.96
2022-09-12T13:12:22.615Z,24.79
2022-09-12T13:14:59.364Z,24.34
2022-09-12T13:17:31.715Z,24.55
2022-09-12T13:20:29.238Z,24.60
2022-09-12T13:22:58.920Z,24.53
2022-09-12T13:25:31.071Z,24.74
2022-09-12T13:28:06.168Z,24.89
2022-09-12T13:30:36.249Z,24.61
2022-09-12T13:33:19.499Z,24.84
2022-09-12T13:36:30.507Z,24.78
2022-09-12T13:39:10.788Z,24.40
2022-09-12T13:42:05.718Z,24.54
2022-09-12T13:44:42.077Z,24.58
2022-09-12T13:47:15.297Z,24.88
2022-09-12T13:49:44.871Z,25.20
2022-09-12T13:52:20.027Z,25.40
2022-09-12T13:54:51.053Z,25.45
2022-09-12T13:57:31.947Z,25.08
2022-09-12T14:00:01.977Z,25.17
2022-09-12T14:02:31.478Z,25.49
2022-09-12T14:05:09.202Z,25.10
2022-09-12T14:07:56.203Z,25.41
2022-09-12T14:10:31.795Z,25.67
2022-09-12T14:13:04.325Z,25.71
2022-09-12T14:15:34.751Z,27.05
2022-09-12T14:18:05.827Z,26.94
2022-09-12T14:20:38.637Z,29.73
2022-09-12T14:23:14.851Z,33.52
2022-09-12T14:25:47.666Z,34.12
2022-09-12T14:28:23.352Z,33.86
2022-09-12T14:31:00.567Z,34.21
2022-09-12T14:33:29.041Z,31.75
2022-09-12T14:36:11.209Z,29.64
2022-09-12T14:38:43.714Z,31.32
2022-09-12T14:41:14.866Z,33.91
2022-09-12T14:43:47.524Z,35.46
2022-09-12T14:46:20.466Z,36.79
2022-09-12T14:48:52.840Z,37.53
2022-09-12T14:51:26.035Z,37.11
2022-09-12T14:53:54.649Z,35.12
2022-09-12T14:56:23.938Z,37.44
2022-09-12T14:58:53.341Z,38.20
2022-09-12T15:01:26.569Z,37.88
2022-09-12T15:03:57.196Z,37.53
2022-09-12T15:06:29.682Z,38.68
2022-09-12T15:09:00.580Z,38.34
2022-09-12T15:11:28.618Z,36.51
2022-09-12T15:13:57.799Z,33.94
2022-09-12T15:16:25.931Z,34.64
2022-09-12T15:18:53.796Z,34.50
2022-09-12T15:21:22.305Z,32.85
2022-09-12T15:23:51.307Z,33.00
2022-09-12T15:26:21.703Z,35.26
2022-09-12T15:29:00.359Z,36.28
2022-09-12T15:31:30.452Z,34.17
2022-09-12T15:33:59.739Z,31.70
2022-09-12T15:36:28.795Z,30.46
2022-09-12T15:38:57.369Z,29.28
2022-09-12T15:41:33.567Z,28.15
2022-09-12T15:44:05.203Z,26.54
2022-09-12T15:46:33.163Z,25.64
2022-09-12T15:49:01.247Z,25.28
2022-09-12T15:51:29.256Z,25.37
2022-09-12T15:53:57.474Z,25.30
2022-09-12T15:56:25.218Z,25.11
2022-09-12T15:59:00.389Z,25.09
2022-09-12T16:01:30.213Z,25.14
2022-09-12T16:03:58.557Z,24.97
2022-09-12T16:06:27.780Z,24.58
2022-09-12T16:08:55.953Z,24.41
2022-09-12T16:11:25.746Z,24.30
2022-09-12T16:13:54.949Z,24.48
2022-09-12T16:16:22.948Z,24.59
2022-09-12T16:18:52.262Z,24.53
2022-09-12T16:21:20.050Z,24.38
2022-09-12T16:23:49.087Z,24.21
2022-09-12T16:26:18.061Z,24.16
2022-09-12T16:28:46.512Z,24.19
2022-09-12T16:31:15.191Z,24.17
2022-09-12T16:33:43.256Z,24.16
2022-09-12T16:36:14.419Z,24.01
2022-09-12T16:38:43.127Z,23.84
2022-09-12T16:41:11.630Z,23.80
2022-09-12T16:43:39.986Z,23.80
2022-09-12T16:46:09.761Z,23.79
2022-09-12T16:48:38.463Z,23.59
2022-09-12T16:51:07.814Z,23.57
2022-09-12T16:53:39.321Z,23.55
2022-09-12T16:56:07.546Z,23.47
2022-09-12T16:58:41.628Z,23.56
2022-09-12T17:01:11.892Z,23.36
2022-09-12T17:03:40.077Z,23.21
2022-09-12T17:06:10.603Z,23.22
2022-09-12T17:08:41.443Z,23.08
2022-09-12T17:11:11.158Z,23.05
2022-09-12T17:14:03.381Z,22.94
2022-09-12T17:16:29.669Z,22.82
2022-09-12T17:19:02.087Z,22.82
2022-09-12T17:21:30.092Z,22.77
2022-09-12T17:24:00.115Z,22.62
2022-09-12T17:26:28.150Z,22.51
2022-09-12T17:28:57.701Z,22.35
2022-09-12T17:31:26.661Z,22.18
2022-09-12T17:36:53.657Z,21.87
2022-09-12T17:39:23.262Z,21.77
2022-09-12T17:41:53.942Z,21.55
2022-09-12T17:44:23.088Z,21.42
2022-09-12T17:46:51.128Z,21.23
2022-09-12T17:49:22.135Z,21.12
2022-09-12T17:51:51.147Z,20.80
2022-09-12T17:54:20.814Z,20.74
2022-09-12T17:56:51.551Z,20.62
2022-09-12T17:59:24.282Z,20.41
2022-09-12T18:02:09.680Z,20.32
2022-09-12T18:04:42.117Z,20.12
2022-09-12T18:07:11.073Z,19.94
2022-09-12T18:09:39.247Z,19.72
2022-09-12T18:12:09.154Z,19.52
2022-09-12T18:14:37.727Z,19.26
2022-09-12T18:17:06.921Z,19.22
2022-09-12T18:19:35.296Z,19.31
2022-09-12T18:22:03.708Z,19.24
2022-09-12T18:24:31.497Z,19.15
2022-09-12T18:26:59.431Z,18.98
2022-09-12T18:29:28.689Z,18.86
2022-09-12T18:31:56.557Z,18.80
2022-09-12T18:34:24.413Z,18.81
2022-09-12T18:36:54.298Z,18.75
2022-09-12T18:39:26.847Z,18.65
2022-09-12T18:41:55.950Z,18.54
2022-09-12T18:44:23.692Z,18.47
2022-09-12T18:46:52.908Z,18.23
2022-09-12T18:49:21.028Z,18.30
2022-09-12T18:51:48.820Z,18.22
2022-09-12T18:54:17.796Z,18.18
2022-09-12T18:56:45.829Z,18.09
2022-09-12T18:59:14.782Z,18.02
2022-09-12T19:01:43.546Z,17.93
2022-09-12T19:04:17.404Z,17.92
2022-09-12T19:06:46.630Z,18.11
2022-09-12T19:09:17.088Z,18.13
2022-09-12T19:11:49.841Z,18.03
2022-09-12T19:14:19.302Z,18.05
2022-09-12T19:16:50.716Z,17.94
2022-09-12T19:19:20.066Z,17.79
2022-09-12T19:21:47.983Z,17.66
2022-09-12T19:24:17.096Z,17.51
2022-09-12T19:26:45.973Z,17.44
2022-09-12T19:29:14.704Z,17.59
2022-09-12T19:31:42.767Z,17.59
2022-09-12T19:34:12.100Z,17.52
2022-09-12T19:36:46.586Z,17.58
2022-09-12T19:39:16.384Z,17.41
2022-09-12T19:41:44.620Z,17.28
2022-09-12T19:44:12.858Z,16.87
2022-09-12T19:46:41.641Z,17.05
2022-09-12T19:49:11.066Z,16.98
2022-09-12T19:51:39.032Z,16.84
2022-09-12T19:54:08.326Z,16.84
2022-09-12T19:56:36.175Z,16.85
2022-09-12T19:59:04.202Z,16.79
2022-09-12T20:01:32.441Z,16.73
2022-09-12T20:04:01.627Z,16.91
2022-09-12T20:06:29.562Z,16.94
2022-09-12T20:08:57.933Z,16.88
2022-09-12T20:11:27.076Z,16.72
2022-09-12T20:13:55.122Z,16.76
2022-09-12T20:16:28.387Z,16.73
2022-09-12T20:18:58.151Z,16.44
2022-09-12T20:21:31.389Z,16.53
2022-09-12T20:24:05.194Z,16.49
2022-09-12T20:26:34.406Z,16.51
2022-09-12T20:29:02.272Z,16.41
2022-09-12T20:31:30.481Z,16.36
2022-09-12T20:33:58.904Z,16.26
2022-09-12T20:36:27.622Z,16.18
2022-09-12T20:38:57.802Z,16.30
2022-09-12T20:41:26.659Z,16.50
2022-09-12T20:43:57.766Z,16.53
2022-09-12T20:46:27.704Z,16.59
2022-09-12T20:48:56.174Z,16.54
2022-09-12T20:51:26.501Z,16.49
2022-09-12T20:53:55.085Z,16.30
2022-09-12T20:56:23.686Z,16.25
2022-09-12T20:58:52.282Z,16.23
2022-09-12T21:01:24.969Z,15.96
2022-09-12T21:03:53.105Z,15.87
2022-09-12T21:06:21.652Z,15.80
2022-09-12T21:08:50.408Z,15.69
2022-09-12T21:11:19.163Z,15.68
2022-09-12T21:13:47.744Z,15.40
2022-09-12T21:16:19.644Z,15.47
2022-09-12T21:18:53.887Z,15.53
2022-09-12T21:21:21.929Z,15.62
2022-09-12T21:23:50.632Z,15.50
2022-09-12T21:26:18.500Z,15.48
2022-09-12T21:28:46.425Z,15.38
2022-09-12T21:31:14.350Z,15.33
2022-09-12T21:33:42.336Z,15.30
2022-09-12T21:36:12.217Z,15.30
2022-09-12T21:38:40.951Z,15.37
2022-09-12T21:41:11.071Z,15.35
2022-09-12T21:43:39.827Z,15.29
2022-09-12T21:46:08.829Z,15.21
2022-09-12T21:48:37.548Z,15.31
2022-09-12T21:51:05.730Z,14.99
2022-09-12T21:53:37.333Z,15.24
2022-09-12T21:56:08.050Z,15.16
2022-09-12T21:58:36.651Z,15.24
2022-09-12T22:01:06.089Z,15.34
2022-09-12T22:03:34.205Z,15.40
2022-09-12T22:06:04.430Z,15.31
2022-09-12T22:08:35.718Z,15.25
2022-09-12T22:11:09.479Z,15.24
2022-09-12T22:13:39.164Z,15.23
2022-09-12T22:16:07.943Z,15.30
2022-09-12T22:18:37.460Z,15.25
2022-09-12T22:21:07.248Z,15.21
2022-09-12T22:23:54.955Z,15.15
2022-09-12T22:26:23.056Z,15.09
2022-09-12T22:28:51.539Z,15.05
2022-09-12T22:31:19.792Z,14.99
2022-09-12T22:33:48.608Z,15.08
2022-09-12T22:36:16.404Z,15.13
2022-09-12T22:38:45.521Z,15.12
2022-09-12T22:41:14.151Z,15.05
2022-09-12T22:43:42.585Z,14.98
2022-09-12T22:46:13.215Z,14.97
2022-09-12T22:48:41.627Z,14.96
2022-09-12T22:51:09.542Z,15.01
2022-09-12T22:53:38.809Z,15.12
2022-09-12T22:56:09.835Z,15.15
2022-09-12T22:58:38.634Z,15.15
2022-09-12T23:01:07.337Z,15.21
2022-09-12T23:03:36.424Z,15.16
2022-09-12T23:06:05.084Z,15.10
2022-09-12T23:08:34.850Z,15.08
2022-09-12T23:11:03.789Z,15.03
2022-09-12T23:13:33.904Z,15.18
2022-09-12T23:16:03.944Z,15.14
2022-09-12T23:18:32.163Z,15.12
2022-09-12T23:21:01.649Z,15.07
2022-09-12T23:23:30.360Z,14.81
2022-09-12T23:26:06.598Z,14.91
2022-09-12T23:28:36.286Z,14.95
2022-09-12T23:31:04.547Z,14.82
2022-09-12T23:33:33.261Z,14.82
2022-09-12T23:36:01.757Z,14.77
2022-09-12T23:38:30.775Z,14.73
2022-09-12T23:40:58.973Z,14.76
2022-09-12T23:43:27.407Z,14.65
2022-09-12T23:45:56.735Z,14.64
2022-09-12T23:48:24.855Z,14.55
2022-09-12T23:50:53.748Z,14.50
2022-09-12T23:53:22.821Z,14.48
2022-09-12T23:55:51.427Z,14.53
2022-09-12T23:58:19.590Z,14.68
